sensor_id;sensor_type;location;lat;lon;timestamp;P1;durP1;ratioP1;P2;durP2;ratioP2
9370;SDS011;4725;48.384;8.984;2023-04-06T00:00:31;9.73;;;4.20;;
9370;SDS011;4725;48.384;8.984;2023-04-06T00:02:58;5.53;;;4.60;;
9370;SDS011;4725;48.384;8.984;2023-04-06T00:05:25;7.50;;;4.33;;
9370;SDS011;4725;48.384;8.984;2023-04-06T00:07:53;6.10;;;4.90;;
9370;SDS011;4725;48.384;8.984;2023-04-06T00:10:21;6.13;;;4.60;;
9370;SDS011;4725;48.384;8.984;2023-04-06T00:12:49;5.63;;;4.50;;
9370;SDS011;4725;48.384;8.984;2023-04-06T00:15:16;5.40;;;4.17;;
9370;SDS011;4725;48.384;8.984;2023-04-06T00:17:43;6.30;;;4.50;;
9370;SDS011;4725;48.384;8.984;2023-04-06T00:20:10;5.73;;;4.60;;
9370;SDS011;4725;48.384;8.984;2023-04-06T00:22:37;6.33;;;4.80;;
9370;SDS011;4725;48.384;8.984;2023-04-06T00:25:05;5.30;;;4.60;;
9370;SDS011;4725;48.384;8.984;2023-04-06T00:27:32;7.30;;;4.73;;
9370;SDS011;4725;48.384;8.984;2023-04-06T00:30:00;5.60;;;4.40;;
9370;SDS011;4725;48.384;8.984;2023-04-06T00:32:28;6.80;;;4.70;;
9370;SDS011;4725;48.384;8.984;2023-04-06T00:34:55;7.10;;;4.77;;
9370;SDS011;4725;48.384;8.984;2023-04-06T00:37:22;5.80;;;4.60;;
9370;SDS011;4725;48.384;8.984;2023-04-06T00:39:49;8.90;;;4.47;;
9370;SDS011;4725;48.384;8.984;2023-04-06T00:42:17;6.57;;;4.90;;
9370;SDS011;4725;48.384;8.984;2023-04-06T00:44:50;6.33;;;4.40;;
9370;SDS011;4725;48.384;8.984;2023-04-06T00:47:18;6.23;;;4.83;;
9370;SDS011;4725;48.384;8.984;2023-04-06T00:49:45;6.00;;;4.60;;
9370;SDS011;4725;48.384;8.984;2023-04-06T00:52:13;6.77;;;4.27;;
9370;SDS011;4725;48.384;8.984;2023-04-06T00:54:40;5.80;;;5.00;;
9370;SDS011;4725;48.384;8.984;2023-04-06T00:57:07;6.13;;;4.27;;
9370;SDS011;4725;48.384;8.984;2023-04-06T00:59:34;6.13;;;4.23;;
9370;SDS011;4725;48.384;8.984;2023-04-06T01:02:01;7.23;;;4.73;;
9370;SDS011;4725;48.384;8.984;2023-04-06T01:04:30;6.43;;;4.90;;
9370;SDS011;4725;48.384;8.984;2023-04-06T01:06:57;6.47;;;5.03;;
9370;SDS011;4725;48.384;8.984;2023-04-06T01:09:24;8.47;;;5.30;;
9370;SDS011;4725;48.384;8.984;2023-04-06T01:11:52;8.33;;;4.90;;
9370;SDS011;4725;48.384;8.984;2023-04-06T01:14:19;6.73;;;4.40;;
9370;SDS011;4725;48.384;8.984;2023-04-06T01:16:46;8.63;;;4.40;;
9370;SDS011;4725;48.384;8.984;2023-04-06T01:19:13;5.83;;;4.73;;
9370;SDS011;4725;48.384;8.984;2023-04-06T01:21:41;6.43;;;4.60;;
9370;SDS011;4725;48.384;8.984;2023-04-06T01:24:10;5.77;;;4.70;;
9370;SDS011;4725;48.384;8.984;2023-04-06T01:26:37;7.00;;;4.73;;
9370;SDS011;4725;48.384;8.984;2023-04-06T01:29:05;5.83;;;4.33;;
9370;SDS011;4725;48.384;8.984;2023-04-06T01:31:32;6.77;;;5.07;;
9370;SDS011;4725;48.384;8.984;2023-04-06T01:33:59;5.17;;;4.30;;
9370;SDS011;4725;48.384;8.984;2023-04-06T01:36:26;8.13;;;4.47;;
9370;SDS011;4725;48.384;8.984;2023-04-06T01:38:53;6.03;;;4.40;;
9370;SDS011;4725;48.384;8.984;2023-04-06T01:41:21;7.87;;;5.47;;
9370;SDS011;4725;48.384;8.984;2023-04-06T01:43:48;7.00;;;5.10;;
9370;SDS011;4725;48.384;8.984;2023-04-06T01:46:19;6.20;;;4.73;;
9370;SDS011;4725;48.384;8.984;2023-04-06T01:48:46;6.67;;;4.37;;
9370;SDS011;4725;48.384;8.984;2023-04-06T01:51:14;7.17;;;4.60;;
9370;SDS011;4725;48.384;8.984;2023-04-06T01:53:41;7.00;;;4.77;;
9370;SDS011;4725;48.384;8.984;2023-04-06T01:56:08;5.17;;;4.10;;
9370;SDS011;4725;48.384;8.984;2023-04-06T01:58:36;5.70;;;4.27;;
9370;SDS011;4725;48.384;8.984;2023-04-06T02:01:03;9.47;;;4.50;;
9370;SDS011;4725;48.384;8.984;2023-04-06T02:03:30;6.23;;;4.13;;
9370;SDS011;4725;48.384;8.984;2023-04-06T02:05:58;6.63;;;4.33;;
9370;SDS011;4725;48.384;8.984;2023-04-06T02:08:25;4.80;;;4.07;;
9370;SDS011;4725;48.384;8.984;2023-04-06T02:10:52;5.80;;;4.10;;
9370;SDS011;4725;48.384;8.984;2023-04-06T02:13:19;5.33;;;4.33;;
9370;SDS011;4725;48.384;8.984;2023-04-06T02:15:47;6.63;;;4.83;;
9370;SDS011;4725;48.384;8.984;2023-04-06T02:18:14;5.53;;;4.73;;
9370;SDS011;4725;48.384;8.984;2023-04-06T02:20:43;6.97;;;4.53;;
9370;SDS011;4725;48.384;8.984;2023-04-06T02:23:10;8.17;;;4.70;;
9370;SDS011;4725;48.384;8.984;2023-04-06T02:25:38;8.03;;;4.37;;
9370;SDS011;4725;48.384;8.984;2023-04-06T02:28:05;6.33;;;4.33;;
9370;SDS011;4725;48.384;8.984;2023-04-06T02:30:32;5.43;;;4.23;;
9370;SDS011;4725;48.384;8.984;2023-04-06T02:33:00;6.33;;;4.50;;
9370;SDS011;4725;48.384;8.984;2023-04-06T02:35:28;7.17;;;4.30;;
9370;SDS011;4725;48.384;8.984;2023-04-06T02:37:55;5.33;;;3.97;;
9370;SDS011;4725;48.384;8.984;2023-04-06T02:40:22;5.53;;;4.27;;
9370;SDS011;4725;48.384;8.984;2023-04-06T02:42:49;6.43;;;4.43;;
9370;SDS011;4725;48.384;8.984;2023-04-06T02:45:16;7.23;;;4.63;;
9370;SDS011;4725;48.384;8.984;2023-04-06T02:47:43;5.17;;;4.20;;
9370;SDS011;4725;48.384;8.984;2023-04-06T02:50:12;6.17;;;4.33;;
9370;SDS011;4725;48.384;8.984;2023-04-06T02:52:39;6.00;;;4.50;;
9370;SDS011;4725;48.384;8.984;2023-04-06T02:55:06;7.37;;;4.30;;
9370;SDS011;4725;48.384;8.984;2023-04-06T02:57:33;5.57;;;3.97;;
9370;SDS011;4725;48.384;8.984;2023-04-06T03:00:00;4.87;;;3.83;;
9370;SDS011;4725;48.384;8.984;2023-04-06T03:02:27;6.80;;;4.40;;
9370;SDS011;4725;48.384;8.984;2023-04-06T03:04:55;5.87;;;3.80;;
9370;SDS011;4725;48.384;8.984;2023-04-06T03:07:23;6.70;;;4.60;;
9370;SDS011;4725;48.384;8.984;2023-04-06T03:09:50;5.87;;;4.43;;
9370;SDS011;4725;48.384;8.984;2023-04-06T03:12:17;6.37;;;4.47;;
9370;SDS011;4725;48.384;8.984;2023-04-06T03:14:44;6.40;;;4.87;;
9370;SDS011;4725;48.384;8.984;2023-04-06T03:17:11;6.70;;;4.20;;
9370;SDS011;4725;48.384;8.984;2023-04-06T03:19:38;5.93;;;4.27;;
9370;SDS011;4725;48.384;8.984;2023-04-06T03:22:05;5.97;;;4.60;;
9370;SDS011;4725;48.384;8.984;2023-04-06T03:24:33;6.37;;;4.27;;
9370;SDS011;4725;48.384;8.984;2023-04-06T03:27:00;6.57;;;4.87;;
9370;SDS011;4725;48.384;8.984;2023-04-06T03:29:29;6.43;;;5.13;;
9370;SDS011;4725;48.384;8.984;2023-04-06T03:31:57;8.43;;;4.63;;
9370;SDS011;4725;48.384;8.984;2023-04-06T03:34:24;8.80;;;4.97;;
9370;SDS011;4725;48.384;8.984;2023-04-06T03:36:51;5.83;;;4.10;;
9370;SDS011;4725;48.384;8.984;2023-04-06T03:39:18;7.37;;;4.83;;
9370;SDS011;4725;48.384;8.984;2023-04-06T03:41:46;8.63;;;5.27;;
9370;SDS011;4725;48.384;8.984;2023-04-06T03:44:13;4.83;;;4.20;;
9370;SDS011;4725;48.384;8.984;2023-04-06T03:46:41;8.13;;;4.90;;
9370;SDS011;4725;48.384;8.984;2023-04-06T03:49:08;11.37;;;5.13;;
9370;SDS011;4725;48.384;8.984;2023-04-06T03:51:35;24.40;;;12.63;;
9370;SDS011;4725;48.384;8.984;2023-04-06T03:54:03;87.67;;;42.20;;
9370;SDS011;4725;48.384;8.984;2023-04-06T03:56:30;77.23;;;37.50;;
9370;SDS011;4725;48.384;8.984;2023-04-06T03:58:58;49.13;;;23.70;;
9370;SDS011;4725;48.384;8.984;2023-04-06T04:01:26;17.10;;;10.17;;
9370;SDS011;4725;48.384;8.984;2023-04-06T04:03:53;21.23;;;9.80;;
9370;SDS011;4725;48.384;8.984;2023-04-06T04:06:20;22.27;;;18.53;;
9370;SDS011;4725;48.384;8.984;2023-04-06T04:08:48;10.37;;;5.63;;
9370;SDS011;4725;48.384;8.984;2023-04-06T04:11:15;9.47;;;6.23;;
9370;SDS011;4725;48.384;8.984;2023-04-06T04:13:42;13.10;;;7.33;;
9370;SDS011;4725;48.384;8.984;2023-04-06T04:16:10;10.80;;;6.60;;
9370;SDS011;4725;48.384;8.984;2023-04-06T04:18:37;7.80;;;5.30;;
9370;SDS011;4725;48.384;8.984;2023-04-06T04:21:04;8.27;;;5.23;;
9370;SDS011;4725;48.384;8.984;2023-04-06T04:23:31;7.87;;;5.53;;
9370;SDS011;4725;48.384;8.984;2023-04-06T04:25:58;8.07;;;5.17;;
9370;SDS011;4725;48.384;8.984;2023-04-06T04:28:25;7.77;;;5.50;;
9370;SDS011;4725;48.384;8.984;2023-04-06T04:30:52;6.23;;;4.80;;
9370;SDS011;4725;48.384;8.984;2023-04-06T04:33:20;7.57;;;5.00;;
9370;SDS011;4725;48.384;8.984;2023-04-06T04:35:47;7.77;;;4.77;;
9370;SDS011;4725;48.384;8.984;2023-04-06T04:38:14;7.23;;;4.90;;
9370;SDS011;4725;48.384;8.984;2023-04-06T04:40:41;8.67;;;5.37;;
9370;SDS011;4725;48.384;8.984;2023-04-06T04:43:08;6.17;;;4.97;;
9370;SDS011;4725;48.384;8.984;2023-04-06T04:45:36;8.33;;;4.60;;
9370;SDS011;4725;48.384;8.984;2023-04-06T04:48:03;7.03;;;4.53;;
9370;SDS011;4725;48.384;8.984;2023-04-06T04:50:32;6.70;;;5.20;;
9370;SDS011;4725;48.384;8.984;2023-04-06T04:52:59;6.90;;;4.97;;
9370;SDS011;4725;48.384;8.984;2023-04-06T04:55:26;9.63;;;5.43;;
9370;SDS011;4725;48.384;8.984;2023-04-06T04:57:54;14.77;;;5.97;;
9370;SDS011;4725;48.384;8.984;2023-04-06T05:00:21;11.07;;;5.00;;
9370;SDS011;4725;48.384;8.984;2023-04-06T05:02:48;10.90;;;4.43;;
9370;SDS011;4725;48.384;8.984;2023-04-06T05:05:15;7.70;;;4.57;;
9370;SDS011;4725;48.384;8.984;2023-04-06T05:07:43;7.53;;;4.60;;
9370;SDS011;4725;48.384;8.984;2023-04-06T05:10:10;6.83;;;4.90;;
9370;SDS011;4725;48.384;8.984;2023-04-06T05:12:37;8.37;;;5.50;;
9370;SDS011;4725;48.384;8.984;2023-04-06T05:15:05;9.40;;;4.97;;
9370;SDS011;4725;48.384;8.984;2023-04-06T05:17:33;7.00;;;4.30;;
9370;SDS011;4725;48.384;8.984;2023-04-06T05:20:00;6.50;;;5.13;;
9370;SDS011;4725;48.384;8.984;2023-04-06T05:22:27;6.97;;;4.90;;
9370;SDS011;4725;48.384;8.984;2023-04-06T05:24:55;6.43;;;4.90;;
9370;SDS011;4725;48.384;8.984;2023-04-06T05:27:22;6.53;;;4.80;;
9370;SDS011;4725;48.384;8.984;2023-04-06T05:29:50;7.97;;;4.80;;
9370;SDS011;4725;48.384;8.984;2023-04-06T05:32:17;7.67;;;4.70;;
9370;SDS011;4725;48.384;8.984;2023-04-06T05:34:47;7.17;;;5.00;;
9370;SDS011;4725;48.384;8.984;2023-04-06T05:37:14;5.97;;;4.57;;
9370;SDS011;4725;48.384;8.984;2023-04-06T05:39:41;7.03;;;5.07;;
9370;SDS011;4725;48.384;8.984;2023-04-06T05:42:09;10.30;;;5.53;;
9370;SDS011;4725;48.384;8.984;2023-04-06T05:44:37;7.43;;;5.03;;
9370;SDS011;4725;48.384;8.984;2023-04-06T05:47:04;7.03;;;5.20;;
9370;SDS011;4725;48.384;8.984;2023-04-06T05:49:31;6.50;;;4.97;;
9370;SDS011;4725;48.384;8.984;2023-04-06T05:51:58;7.50;;;4.83;;
9370;SDS011;4725;48.384;8.984;2023-04-06T05:54:25;7.80;;;4.80;;
9370;SDS011;4725;48.384;8.984;2023-04-06T05:56:52;5.30;;;4.80;;
9370;SDS011;4725;48.384;8.984;2023-04-06T05:59:20;8.47;;;5.07;;
9370;SDS011;4725;48.384;8.984;2023-04-06T06:01:48;7.60;;;4.67;;
9370;SDS011;4725;48.384;8.984;2023-04-06T06:04:15;7.93;;;5.10;;
9370;SDS011;4725;48.384;8.984;2023-04-06T06:06:42;7.57;;;5.37;;
9370;SDS011;4725;48.384;8.984;2023-04-06T06:09:09;6.47;;;5.27;;
9370;SDS011;4725;48.384;8.984;2023-04-06T06:11:36;7.83;;;5.87;;
9370;SDS011;4725;48.384;8.984;2023-04-06T06:14:03;9.50;;;5.13;;
9370;SDS011;4725;48.384;8.984;2023-04-06T06:16:32;10.37;;;5.00;;
9370;SDS011;4725;48.384;8.984;2023-04-06T06:18:59;11.23;;;5.07;;
9370;SDS011;4725;48.384;8.984;2023-04-06T06:21:26;7.33;;;4.97;;
9370;SDS011;4725;48.384;8.984;2023-04-06T06:23:53;7.63;;;5.07;;
9370;SDS011;4725;48.384;8.984;2023-04-06T06:26:20;6.00;;;4.87;;
9370;SDS011;4725;48.384;8.984;2023-04-06T06:28:47;11.93;;;4.77;;
9370;SDS011;4725;48.384;8.984;2023-04-06T06:31:14;7.40;;;4.90;;
9370;SDS011;4725;48.384;8.984;2023-04-06T06:33:42;6.17;;;4.67;;
9370;SDS011;4725;48.384;8.984;2023-04-06T06:36:09;9.63;;;5.83;;
9370;SDS011;4725;48.384;8.984;2023-04-06T06:38:36;11.37;;;5.60;;
9370;SDS011;4725;48.384;8.984;2023-04-06T06:41:04;7.23;;;5.23;;
9370;SDS011;4725;48.384;8.984;2023-04-06T06:43:31;10.50;;;5.80;;
9370;SDS011;4725;48.384;8.984;2023-04-06T06:45:58;10.13;;;5.67;;
9370;SDS011;4725;48.384;8.984;2023-04-06T06:48:25;8.57;;;6.03;;
9370;SDS011;4725;48.384;8.984;2023-04-06T06:50:53;9.33;;;5.67;;
9370;SDS011;4725;48.384;8.984;2023-04-06T06:53:21;8.03;;;5.37;;
9370;SDS011;4725;48.384;8.984;2023-04-06T06:55:48;12.53;;;5.63;;
9370;SDS011;4725;48.384;8.984;2023-04-06T06:58:17;12.13;;;5.77;;
9370;SDS011;4725;48.384;8.984;2023-04-06T07:00:44;7.57;;;6.00;;
9370;SDS011;4725;48.384;8.984;2023-04-06T07:03:11;8.73;;;5.63;;
9370;SDS011;4725;48.384;8.984;2023-04-06T07:05:38;6.63;;;5.27;;
9370;SDS011;4725;48.384;8.984;2023-04-06T07:08:15;11.27;;;5.83;;
9370;SDS011;4725;48.384;8.984;2023-04-06T07:10:42;7.23;;;5.60;;
9370;SDS011;4725;48.384;8.984;2023-04-06T07:13:09;6.80;;;5.23;;
9370;SDS011;4725;48.384;8.984;2023-04-06T07:15:36;8.70;;;5.50;;
9370;SDS011;4725;48.384;8.984;2023-04-06T07:18:04;7.60;;;5.30;;
9370;SDS011;4725;48.384;8.984;2023-04-06T07:20:30;7.53;;;5.90;;
9370;SDS011;4725;48.384;8.984;2023-04-06T07:22:57;9.00;;;6.07;;
9370;SDS011;4725;48.384;8.984;2023-04-06T07:25:26;7.33;;;5.37;;
9370;SDS011;4725;48.384;8.984;2023-04-06T07:27:53;8.73;;;6.03;;
9370;SDS011;4725;48.384;8.984;2023-04-06T07:30:20;6.77;;;5.40;;
9370;SDS011;4725;48.384;8.984;2023-04-06T07:32:50;7.77;;;5.70;;
9370;SDS011;4725;48.384;8.984;2023-04-06T07:35:17;8.57;;;5.67;;
9370;SDS011;4725;48.384;8.984;2023-04-06T07:37:44;9.03;;;5.43;;
9370;SDS011;4725;48.384;8.984;2023-04-06T07:40:11;11.37;;;5.90;;
9370;SDS011;4725;48.384;8.984;2023-04-06T07:42:40;7.97;;;6.00;;
9370;SDS011;4725;48.384;8.984;2023-04-06T07:45:07;8.63;;;5.80;;
9370;SDS011;4725;48.384;8.984;2023-04-06T07:47:34;7.63;;;5.67;;
9370;SDS011;4725;48.384;8.984;2023-04-06T07:50:01;7.97;;;5.63;;
9370;SDS011;4725;48.384;8.984;2023-04-06T07:52:29;8.17;;;5.07;;
9370;SDS011;4725;48.384;8.984;2023-04-06T07:54:57;10.30;;;5.97;;
9370;SDS011;4725;48.384;8.984;2023-04-06T07:57:24;8.17;;;5.40;;
9370;SDS011;4725;48.384;8.984;2023-04-06T07:59:52;7.80;;;5.40;;
9370;SDS011;4725;48.384;8.984;2023-04-06T08:02:19;5.63;;;4.90;;
9370;SDS011;4725;48.384;8.984;2023-04-06T08:04:46;7.43;;;6.03;;
9370;SDS011;4725;48.384;8.984;2023-04-06T08:07:13;14.47;;;6.17;;
9370;SDS011;4725;48.384;8.984;2023-04-06T08:09:40;9.10;;;4.53;;
9370;SDS011;4725;48.384;8.984;2023-04-06T08:12:07;6.70;;;4.40;;
9370;SDS011;4725;48.384;8.984;2023-04-06T08:14:34;4.07;;;3.67;;
9370;SDS011;4725;48.384;8.984;2023-04-06T08:17:02;6.90;;;3.73;;
9370;SDS011;4725;48.384;8.984;2023-04-06T08:19:29;6.20;;;4.10;;
9370;SDS011;4725;48.384;8.984;2023-04-06T08:21:57;4.87;;;3.77;;
9370;SDS011;4725;48.384;8.984;2023-04-06T08:24:24;4.97;;;3.60;;
9370;SDS011;4725;48.384;8.984;2023-04-06T08:26:50;7.33;;;5.10;;
9370;SDS011;4725;48.384;8.984;2023-04-06T08:29:17;6.63;;;4.50;;
9370;SDS011;4725;48.384;8.984;2023-04-06T08:31:44;4.63;;;3.93;;
9370;SDS011;4725;48.384;8.984;2023-04-06T08:34:13;5.00;;;4.23;;
9370;SDS011;4725;48.384;8.984;2023-04-06T08:36:40;5.37;;;4.50;;
9370;SDS011;4725;48.384;8.984;2023-04-06T08:39:07;5.20;;;4.23;;
9370;SDS011;4725;48.384;8.984;2023-04-06T08:41:34;6.93;;;4.77;;
9370;SDS011;4725;48.384;8.984;2023-04-06T08:44:01;12.00;;;6.47;;
9370;SDS011;4725;48.384;8.984;2023-04-06T08:46:30;7.33;;;4.67;;
9370;SDS011;4725;48.384;8.984;2023-04-06T08:48:58;9.27;;;4.80;;
9370;SDS011;4725;48.384;8.984;2023-04-06T08:51:29;4.93;;;4.13;;
9370;SDS011;4725;48.384;8.984;2023-04-06T08:53:57;5.60;;;4.20;;
9370;SDS011;4725;48.384;8.984;2023-04-06T08:56:25;5.77;;;3.97;;
9370;SDS011;4725;48.384;8.984;2023-04-06T08:58:53;5.20;;;4.00;;
9370;SDS011;4725;48.384;8.984;2023-04-06T09:01:22;4.13;;;3.70;;
9370;SDS011;4725;48.384;8.984;2023-04-06T09:03:51;4.90;;;3.50;;
9370;SDS011;4725;48.384;8.984;2023-04-06T09:06:23;5.90;;;3.53;;
9370;SDS011;4725;48.384;8.984;2023-04-06T09:08:54;4.10;;;3.43;;
9370;SDS011;4725;48.384;8.984;2023-04-06T09:11:21;4.87;;;3.60;;
9370;SDS011;4725;48.384;8.984;2023-04-06T09:13:49;6.93;;;3.60;;
9370;SDS011;4725;48.384;8.984;2023-04-06T09:16:17;4.50;;;3.33;;
9370;SDS011;4725;48.384;8.984;2023-04-06T09:18:45;6.33;;;4.47;;
9370;SDS011;4725;48.384;8.984;2023-04-06T09:21:12;5.10;;;3.80;;
9370;SDS011;4725;48.384;8.984;2023-04-06T09:23:42;5.47;;;3.90;;
9370;SDS011;4725;48.384;8.984;2023-04-06T09:26:11;3.83;;;3.30;;
9370;SDS011;4725;48.384;8.984;2023-04-06T09:28:46;4.23;;;3.50;;
9370;SDS011;4725;48.384;8.984;2023-04-06T09:31:14;4.03;;;3.07;;
9370;SDS011;4725;48.384;8.984;2023-04-06T09:33:43;3.60;;;3.20;;
9370;SDS011;4725;48.384;8.984;2023-04-06T09:36:11;5.27;;;3.17;;
9370;SDS011;4725;48.384;8.984;2023-04-06T09:38:50;4.07;;;3.43;;
9370;SDS011;4725;48.384;8.984;2023-04-06T09:41:24;4.73;;;3.27;;
9370;SDS011;4725;48.384;8.984;2023-04-06T09:43:52;3.07;;;2.77;;
9370;SDS011;4725;48.384;8.984;2023-04-06T09:46:29;5.00;;;3.60;;
9370;SDS011;4725;48.384;8.984;2023-04-06T09:48:58;4.57;;;2.97;;
9370;SDS011;4725;48.384;8.984;2023-04-06T09:51:26;4.50;;;3.27;;
9370;SDS011;4725;48.384;8.984;2023-04-06T09:53:56;4.43;;;3.47;;
9370;SDS011;4725;48.384;8.984;2023-04-06T09:56:30;5.53;;;3.97;;
9370;SDS011;4725;48.384;8.984;2023-04-06T09:59:05;5.07;;;4.00;;
9370;SDS011;4725;48.384;8.984;2023-04-06T10:01:35;4.37;;;3.47;;
9370;SDS011;4725;48.384;8.984;2023-04-06T10:04:06;4.40;;;3.57;;
9370;SDS011;4725;48.384;8.984;2023-04-06T10:06:43;4.73;;;3.73;;
9370;SDS011;4725;48.384;8.984;2023-04-06T10:09:13;6.07;;;4.27;;
9370;SDS011;4725;48.384;8.984;2023-04-06T10:11:42;4.77;;;3.70;;
9370;SDS011;4725;48.384;8.984;2023-04-06T10:14:10;5.20;;;3.90;;
9370;SDS011;4725;48.384;8.984;2023-04-06T10:16:37;5.60;;;3.60;;
9370;SDS011;4725;48.384;8.984;2023-04-06T10:19:06;5.55;;;3.47;;
9370;SDS011;4725;48.384;8.984;2023-04-06T10:21:39;5.00;;;4.05;;
9370;SDS011;4725;48.384;8.984;2023-04-06T10:24:08;4.60;;;3.50;;
9370;SDS011;4725;48.384;8.984;2023-04-06T10:26:37;4.30;;;3.80;;
9370;SDS011;4725;48.384;8.984;2023-04-06T10:29:06;4.57;;;3.85;;
9370;SDS011;4725;48.384;8.984;2023-04-06T10:31:39;4.70;;;3.90;;
9370;SDS011;4725;48.384;8.984;2023-04-06T10:34:08;7.45;;;4.55;;
9370;SDS011;4725;48.384;8.984;2023-04-06T10:36:35;4.85;;;3.83;;
9370;SDS011;4725;48.384;8.984;2023-04-06T10:39:03;4.35;;;3.85;;
9370;SDS011;4725;48.384;8.984;2023-04-06T10:41:32;4.53;;;4.00;;
9370;SDS011;4725;48.384;8.984;2023-04-06T10:44:00;5.97;;;4.65;;
9370;SDS011;4725;48.384;8.984;2023-04-06T10:46:30;4.57;;;3.88;;
9370;SDS011;4725;48.384;8.984;2023-04-06T10:48:57;4.25;;;3.85;;
9370;SDS011;4725;48.384;8.984;2023-04-06T10:51:37;6.32;;;4.00;;
9370;SDS011;4725;48.384;8.984;2023-04-06T10:54:05;4.93;;;4.18;;
9370;SDS011;4725;48.384;8.984;2023-04-06T10:56:33;5.43;;;4.25;;
9370;SDS011;4725;48.384;8.984;2023-04-06T10:59:03;3.65;;;3.30;;
9370;SDS011;4725;48.384;8.984;2023-04-06T11:01:33;5.03;;;3.90;;
9370;SDS011;4725;48.384;8.984;2023-04-06T11:04:00;4.53;;;3.70;;
9370;SDS011;4725;48.384;8.984;2023-04-06T11:06:29;5.60;;;4.22;;
9370;SDS011;4725;48.384;8.984;2023-04-06T11:08:57;5.63;;;4.03;;
9370;SDS011;4725;48.384;8.984;2023-04-06T11:11:25;4.97;;;3.53;;
9370;SDS011;4725;48.384;8.984;2023-04-06T11:13:53;7.03;;;3.90;;
9370;SDS011;4725;48.384;8.984;2023-04-06T11:16:22;4.68;;;3.65;;
9370;SDS011;4725;48.384;8.984;2023-04-06T11:18:52;4.97;;;4.40;;
9370;SDS011;4725;48.384;8.984;2023-04-06T11:21:31;3.53;;;3.22;;
9370;SDS011;4725;48.384;8.984;2023-04-06T11:24:09;4.00;;;3.58;;
9370;SDS011;4725;48.384;8.984;2023-04-06T11:26:38;5.80;;;4.05;;
9370;SDS011;4725;48.384;8.984;2023-04-06T11:29:06;4.80;;;4.30;;
9370;SDS011;4725;48.384;8.984;2023-04-06T11:31:37;4.95;;;4.38;;
9370;SDS011;4725;48.384;8.984;2023-04-06T11:34:17;4.57;;;4.05;;
9370;SDS011;4725;48.384;8.984;2023-04-06T11:36:45;4.40;;;4.00;;
9370;SDS011;4725;48.384;8.984;2023-04-06T11:39:13;6.18;;;4.28;;
9370;SDS011;4725;48.384;8.984;2023-04-06T11:41:47;5.53;;;4.65;;
9370;SDS011;4725;48.384;8.984;2023-04-06T11:44:14;5.90;;;4.43;;
9370;SDS011;4725;48.384;8.984;2023-04-06T11:46:50;5.53;;;4.03;;
9370;SDS011;4725;48.384;8.984;2023-04-06T11:49:19;4.60;;;3.92;;
9370;SDS011;4725;48.384;8.984;2023-04-06T11:51:46;6.78;;;4.03;;
9370;SDS011;4725;48.384;8.984;2023-04-06T11:54:13;5.60;;;3.90;;
9370;SDS011;4725;48.384;8.984;2023-04-06T11:56:42;4.30;;;3.63;;
9370;SDS011;4725;48.384;8.984;2023-04-06T11:59:13;5.88;;;3.60;;
9370;SDS011;4725;48.384;8.984;2023-04-06T12:01:44;4.40;;;3.88;;
9370;SDS011;4725;48.384;8.984;2023-04-06T12:04:11;7.82;;;4.13;;
9370;SDS011;4725;48.384;8.984;2023-04-06T12:06:40;4.75;;;4.25;;
9370;SDS011;4725;48.384;8.984;2023-04-06T12:09:07;4.72;;;4.20;;
9370;SDS011;4725;48.384;8.984;2023-04-06T12:11:34;5.10;;;4.13;;
9370;SDS011;4725;48.384;8.984;2023-04-06T12:14:00;4.53;;;4.00;;
9370;SDS011;4725;48.384;8.984;2023-04-06T12:16:29;5.20;;;4.65;;
9370;SDS011;4725;48.384;8.984;2023-04-06T12:18:56;4.57;;;4.18;;
9370;SDS011;4725;48.384;8.984;2023-04-06T12:21:23;4.50;;;4.00;;
9370;SDS011;4725;48.384;8.984;2023-04-06T12:23:52;4.85;;;4.15;;
9370;SDS011;4725;48.384;8.984;2023-04-06T12:26:19;4.63;;;4.10;;
9370;SDS011;4725;48.384;8.984;2023-04-06T12:28:46;4.68;;;4.25;;
9370;SDS011;4725;48.384;8.984;2023-04-06T12:31:16;4.53;;;4.13;;
9370;SDS011;4725;48.384;8.984;2023-04-06T12:33:46;6.07;;;3.97;;
9370;SDS011;4725;48.384;8.984;2023-04-06T12:36:14;4.15;;;3.75;;
9370;SDS011;4725;48.384;8.984;2023-04-06T12:38:43;4.68;;;4.18;;
9370;SDS011;4725;48.384;8.984;2023-04-06T12:41:12;5.10;;;4.28;;
9370;SDS011;4725;48.384;8.984;2023-04-06T12:43:40;5.13;;;3.70;;
9370;SDS011;4725;48.384;8.984;2023-04-06T12:46:08;4.55;;;4.15;;
9370;SDS011;4725;48.384;8.984;2023-04-06T12:48:35;4.20;;;3.83;;
9370;SDS011;4725;48.384;8.984;2023-04-06T12:51:03;4.85;;;4.35;;
9370;SDS011;4725;48.384;8.984;2023-04-06T12:53:31;5.03;;;4.30;;
9370;SDS011;4725;48.384;8.984;2023-04-06T12:55:59;3.92;;;3.60;;
9370;SDS011;4725;48.384;8.984;2023-04-06T12:58:29;4.43;;;4.03;;
9370;SDS011;4725;48.384;8.984;2023-04-06T13:00:57;6.07;;;4.03;;
9370;SDS011;4725;48.384;8.984;2023-04-06T13:03:28;4.40;;;4.00;;
9370;SDS011;4725;48.384;8.984;2023-04-06T13:05:55;5.88;;;4.03;;
9370;SDS011;4725;48.384;8.984;2023-04-06T13:08:22;6.60;;;4.03;;
9370;SDS011;4725;48.384;8.984;2023-04-06T13:10:50;4.13;;;3.72;;
9370;SDS011;4725;48.384;8.984;2023-04-06T13:13:23;4.07;;;3.53;;
9370;SDS011;4725;48.384;8.984;2023-04-06T13:15:53;4.32;;;3.67;;
9370;SDS011;4725;48.384;8.984;2023-04-06T13:18:21;4.57;;;4.18;;
9370;SDS011;4725;48.384;8.984;2023-04-06T13:20:49;4.65;;;4.25;;
9370;SDS011;4725;48.384;8.984;2023-04-06T13:23:16;4.30;;;3.60;;
9370;SDS011;4725;48.384;8.984;2023-04-06T13:25:43;4.50;;;4.10;;
9370;SDS011;4725;48.384;8.984;2023-04-06T13:28:10;7.25;;;4.60;;
9370;SDS011;4725;48.384;8.984;2023-04-06T13:30:37;5.40;;;3.75;;
9370;SDS011;4725;48.384;8.984;2023-04-06T13:33:05;5.57;;;4.50;;
9370;SDS011;4725;48.384;8.984;2023-04-06T13:35:32;5.55;;;3.53;;
9370;SDS011;4725;48.384;8.984;2023-04-06T13:38:00;4.93;;;4.43;;
9370;SDS011;4725;48.384;8.984;2023-04-06T13:40:27;13.27;;;7.85;;
9370;SDS011;4725;48.384;8.984;2023-04-06T13:42:55;12.30;;;8.90;;
9370;SDS011;4725;48.384;8.984;2023-04-06T13:45:22;4.85;;;4.30;;
9370;SDS011;4725;48.384;8.984;2023-04-06T13:47:49;4.45;;;3.97;;
9370;SDS011;4725;48.384;8.984;2023-04-06T13:50:18;3.78;;;3.20;;
9370;SDS011;4725;48.384;8.984;2023-04-06T13:52:45;4.68;;;4.20;;
9370;SDS011;4725;48.384;8.984;2023-04-06T13:55:12;3.88;;;3.58;;
9370;SDS011;4725;48.384;8.984;2023-04-06T13:57:40;4.10;;;3.70;;
9370;SDS011;4725;48.384;8.984;2023-04-06T14:00:08;4.35;;;3.40;;
9370;SDS011;4725;48.384;8.984;2023-04-06T14:02:36;4.88;;;3.47;;
9370;SDS011;4725;48.384;8.984;2023-04-06T14:05:03;6.53;;;3.33;;
9370;SDS011;4725;48.384;8.984;2023-04-06T14:07:32;3.78;;;3.15;;
9370;SDS011;4725;48.384;8.984;2023-04-06T14:09:59;7.03;;;3.72;;
9370;SDS011;4725;48.384;8.984;2023-04-06T14:12:26;3.55;;;3.25;;
9370;SDS011;4725;48.384;8.984;2023-04-06T14:14:53;4.05;;;3.60;;
9370;SDS011;4725;48.384;8.984;2023-04-06T14:17:20;5.75;;;3.58;;
9370;SDS011;4725;48.384;8.984;2023-04-06T14:19:47;4.43;;;3.45;;
9370;SDS011;4725;48.384;8.984;2023-04-06T14:22:14;8.10;;;5.15;;
9370;SDS011;4725;48.384;8.984;2023-04-06T14:24:42;5.20;;;3.40;;
9370;SDS011;4725;48.384;8.984;2023-04-06T14:27:10;3.20;;;2.90;;
9370;SDS011;4725;48.384;8.984;2023-04-06T14:29:37;5.40;;;4.05;;
9370;SDS011;4725;48.384;8.984;2023-04-06T14:32:04;5.72;;;4.72;;
9370;SDS011;4725;48.384;8.984;2023-04-06T14:34:31;12.50;;;10.40;;
9370;SDS011;4725;48.384;8.984;2023-04-06T14:36:58;7.50;;;6.28;;
9370;SDS011;4725;48.384;8.984;2023-04-06T14:39:25;5.47;;;3.67;;
9370;SDS011;4725;48.384;8.984;2023-04-06T14:41:53;3.08;;;2.63;;
9370;SDS011;4725;48.384;8.984;2023-04-06T14:44:20;2.92;;;2.50;;
9370;SDS011;4725;48.384;8.984;2023-04-06T14:46:47;3.33;;;3.03;;
9370;SDS011;4725;48.384;8.984;2023-04-06T14:49:15;14.60;;;8.60;;
9370;SDS011;4725;48.384;8.984;2023-04-06T14:51:42;6.07;;;3.40;;
9370;SDS011;4725;48.384;8.984;2023-04-06T14:54:09;4.78;;;3.55;;
9370;SDS011;4725;48.384;8.984;2023-04-06T14:56:36;3.22;;;2.92;;
9370;SDS011;4725;48.384;8.984;2023-04-06T14:59:05;3.20;;;2.55;;
9370;SDS011;4725;48.384;8.984;2023-04-06T15:01:33;3.88;;;3.45;;
9370;SDS011;4725;48.384;8.984;2023-04-06T15:04:02;6.28;;;4.50;;
9370;SDS011;4725;48.384;8.984;2023-04-06T15:06:28;5.40;;;4.45;;
9370;SDS011;4725;48.384;8.984;2023-04-06T15:08:55;4.68;;;3.38;;
9370;SDS011;4725;48.384;8.984;2023-04-06T15:11:22;7.32;;;4.60;;
9370;SDS011;4725;48.384;8.984;2023-04-06T15:13:49;4.05;;;3.15;;
9370;SDS011;4725;48.384;8.984;2023-04-06T15:16:18;3.85;;;3.17;;
9370;SDS011;4725;48.384;8.984;2023-04-06T15:18:45;4.55;;;2.70;;